Time;durP1;ratioP1;P1;durP2;ratioP2;P2;SDS_P1;SDS_P2;PMS_P1;PMS_P2;Temp;Humidity;BMP_temperature;BMP_pressure;BME280_temperature;BME280_humidity;BME280_pressure;Samples;Min_cycle;Max_cycle;Signal;HPM_P1;HPM_P2
2022/11/16 05:04:07;;;;;;;12.83;9.50;;;11.10;99.90;;;;;;5004605;28;20958;-72
2022/11/16 05:06:34;;;;;;;15.23;8.63;;;11.10;99.90;;;;;;5004882;28;20462;-72
2022/11/16 05:09:00;;;;;;;14.23;9.07;;;11.10;99.90;;;;;;5005111;28;20461;-72
2022/11/16 05:11:27;;;;;;;15.37;10.57;;;11.20;99.90;;;;;;5005282;28;20482;-72
2022/11/16 05:13:54;;;;;;;14.27;10.13;;;11.20;99.90;;;;;;5005647;28;20999;-72
2022/11/16 05:16:29;;;;;;;12.10;8.93;;;11.20;99.90;;;;;;5005020;28;20506;-72
2022/11/16 05:21:37;;;;;;;14.90;9.67;;;11.20;99.90;;;;;;4981508;28;20573;-72
2022/11/16 05:26:48;;;;;;;16.97;10.77;;;11.20;99.90;;;;;;5004967;28;21005;-72
2022/11/16 05:29:15;;;;;;;15.93;11.00;;;11.20;99.90;;;;;;5005693;28;20462;-72
2022/11/16 05:31:43;;;;;;;16.60;9.87;;;11.20;99.90;;;;;;5005163;28;20474;-72
2022/11/16 05:34:10;;;;;;;15.47;9.73;;;11.10;99.90;;;;;;5004924;28;20454;-72
2022/11/16 05:36:37;;;;;;;17.60;12.00;;;11.20;99.90;;;;;;5005438;28;20459;-72
2022/11/16 05:39:04;;;;;;;21.60;11.90;;;11.20;99.90;;;;;;5005126;28;20463;-72
2022/11/16 05:41:31;;;;;;;16.37;10.57;;;11.20;99.90;;;;;;5004961;28;20475;-72
2022/11/16 05:43:58;;;;;;;18.97;12.93;;;11.20;99.90;;;;;;5004846;28;20844;-72
2022/11/16 05:46:26;;;;;;;18.07;11.90;;;11.20;99.90;;;;;;5005378;28;20455;-72
2022/11/16 05:48:54;;;;;;;17.53;11.50;;;11.20;99.90;;;;;;5005472;28;20454;-67
2022/11/16 05:51:21;;;;;;;16.60;11.00;;;11.20;99.90;;;;;;5005187;28;20490;-67
2022/11/16 05:53:48;;;;;;;17.00;11.10;;;11.20;99.90;;;;;;5005147;28;20463;-67
2022/11/16 05:56:15;;;;;;;13.37;9.83;;;11.20;99.90;;;;;;5004315;28;20503;-67
2022/11/16 05:58:42;;;;;;;16.73;10.10;;;11.10;99.90;;;;;;5004812;28;20894;-67
2022/11/16 06:01:10;;;;;;;11.87;9.40;;;11.10;99.90;;;;;;5004997;28;20490;-75
2022/11/16 06:03:37;;;;;;;10.80;8.90;;;11.10;99.90;;;;;;5006350;28;20470;-74
2022/11/16 06:06:05;;;;;;;12.07;9.03;;;11.10;99.90;;;;;;5007634;28;20451;-74
2022/11/16 06:08:32;;;;;;;10.87;8.60;;;11.00;99.90;;;;;;5008485;28;20458;-74
2022/11/16 06:11:01;;;;;;;15.00;11.40;;;11.10;99.90;;;;;;5008686;28;20479;-74
2022/11/16 06:13:28;;;;;;;19.97;13.57;;;11.10;99.90;;;;;;5008794;28;21004;-75
2022/11/16 06:15:55;;;;;;;17.33;12.27;;;11.10;99.90;;;;;;5007509;28;20494;-75
2022/11/16 06:18:22;;;;;;;19.17;12.97;;;11.10;99.90;;;;;;5008450;28;20454;-75
2022/11/16 06:20:49;;;;;;;12.60;9.47;;;11.10;99.90;;;;;;5008513;28;20478;-75
2022/11/16 06:23:17;;;;;;;10.83;8.23;;;11.10;99.90;;;;;;5008139;28;20463;-74
2022/11/16 06:25:44;;;;;;;9.17;7.27;;;11.20;99.90;;;;;;5007254;28;20466;-75
2022/11/16 06:28:11;;;;;;;9.33;7.47;;;11.10;99.90;;;;;;5008332;28;20459;-75
2022/11/16 06:30:39;;;;;;;9.20;7.53;;;11.10;99.90;;;;;;5008370;28;20482;-75
2022/11/16 06:33:06;;;;;;;12.70;8.10;;;11.10;99.90;;;;;;5008020;28;20550;-74
2022/11/16 06:35:33;;;;;;;9.77;7.50;;;11.10;99.90;;;;;;5007411;28;20497;-74
2022/11/16 06:38:00;;;;;;;15.10;8.00;;;11.10;99.90;;;;;;5008062;28;20470;-75
2022/11/16 06:40:28;;;;;;;9.57;7.57;;;11.10;99.90;;;;;;5008176;28;20459;-75
2022/11/16 06:42:56;;;;;;;9.40;7.47;;;11.10;99.90;;;;;;5007921;28;20459;-74
2022/11/16 06:45:23;;;;;;;15.90;8.30;;;11.10;99.90;;;;;;5005650;28;20962;-74
2022/11/16 06:47:49;;;;;;;9.43;8.00;;;11.10;99.90;;;;;;5006560;28;20521;-75
2022/11/16 06:50:18;;;;;;;11.43;7.10;;;11.10;99.90;;;;;;5007956;28;20478;-75
2022/11/16 06:52:45;;;;;;;9.60;7.40;;;11.10;99.90;;;;;;5007756;28;20557;-75
2022/11/16 06:55:12;;;;;;;9.43;7.13;;;11.10;99.90;;;;;;5006454;28;20497;-74
2022/11/16 06:57:40;;;;;;;9.97;7.70;;;11.00;99.90;;;;;;5007363;28;20451;-75
2022/11/16 07:00:10;;;;;;;8.40;7.50;;;11.10;99.90;;;;;;5007414;28;20924;-74
2022/11/16 07:02:37;;;;;;;11.37;8.23;;;11.10;99.90;;;;;;5007408;28;20478;-74
2022/11/16 07:05:04;;;;;;;10.87;8.43;;;11.10;99.90;;;;;;5007241;28;20541;-74
2022/11/16 07:07:31;;;;;;;10.73;8.07;;;11.00;99.90;;;;;;5007651;28;20454;-74
2022/11/16 07:09:58;;;;;;;13.40;9.17;;;11.00;99.90;;;;;;5007520;28;20454;-75
2022/11/16 07:12:25;;;;;;;10.70;8.00;;;11.00;99.90;;;;;;5007367;28;20860;-74
2022/11/16 07:14:53;;;;;;;13.80;8.30;;;11.00;99.90;;;;;;5005617;28;20998;-75
2022/11/16 07:17:20;;;;;;;11.77;8.30;;;11.00;99.90;;;;;;5007275;28;21114;-74
2022/11/16 07:19:47;;;;;;;14.77;9.27;;;11.00;99.90;;;;;;5006940;28;21084;-74
2022/11/16 07:22:13;;;;;;;14.10;9.13;;;11.00;99.90;;;;;;5007341;28;20481;-74
2022/11/16 07:24:40;;;;;;;13.30;9.27;;;11.00;99.90;;;;;;5006648;28;20466;-74
2022/11/16 07:27:07;;;;;;;12.80;9.83;;;11.10;99.90;;;;;;5007065;28;20463;-74
2022/11/16 07:29:34;;;;;;;10.70;9.57;;;11.10;99.90;;;;;;5007246;28;20470;-74
2022/11/16 07:32:02;;;;;;;14.63;10.20;;;11.10;99.90;;;;;;5006702;28;20487;-74
2022/11/16 07:34:29;;;;;;;11.20;10.00;;;11.10;99.90;;;;;;5006102;28;20465;-74
2022/11/16 07:36:56;;;;;;;11.77;10.40;;;11.10;99.90;;;;;;5006788;28;20770;-74
2022/11/16 07:39:23;;;;;;;13.27;10.53;;;11.10;99.90;;;;;;5006917;28;20455;-74
2022/11/16 07:41:52;;;;;;;13.20;10.40;;;11.10;99.90;;;;;;5006297;28;20478;-74
2022/11/16 07:44:19;;;;;;;13.30;10.50;;;11.20;99.90;;;;;;5005976;28;20546;-74
2022/11/16 07:46:45;;;;;;;15.70;12.20;;;11.20;99.90;;;;;;5006098;28;20461;-74
2022/11/16 07:49:16;;;;;;;16.20;12.83;;;11.20;99.90;;;;;;5006382;28;20462;-74
2022/11/16 07:51:44;;;;;;;16.17;13.17;;;11.20;99.90;;;;;;5006525;28;20479;-74
2022/11/16 07:54:12;;;;;;;14.17;11.03;;;11.20;99.90;;;;;;5005943;28;20890;-74
2022/11/16 07:56:38;;;;;;;15.00;12.23;;;11.30;99.90;;;;;;5005956;28;21002;-74
2022/11/16 07:59:05;;;;;;;17.07;11.90;;;11.30;99.90;;;;;;5006174;28;20451;-74
2022/11/16 08:01:32;;;;;;;26.50;17.27;;;11.30;99.90;;;;;;5005951;28;20838;-74
2022/11/16 08:04:01;;;;;;;69.83;52.03;;;11.30;99.90;;;;;;5005716;28;20470;-74
2022/11/16 08:06:30;;;;;;;35.73;28.63;;;11.30;99.90;;;;;;5006442;28;20486;-75
2022/11/16 08:08:57;;;;;;;23.90;16.80;;;11.30;99.90;;;;;;5005876;28;20993;-74
2022/11/16 08:11:24;;;;;;;14.33;12.40;;;11.40;99.90;;;;;;5005868;28;20487;-74
2022/11/16 08:13:51;;;;;;;40.40;35.87;;;11.40;99.90;;;;;;5005618;28;20455;-75
2022/11/16 08:16:20;;;;;;;78.97;69.67;;;11.50;99.90;;;;;;5005629;28;20499;-74
2022/11/16 08:18:47;;;;;;;62.60;55.80;;;11.50;99.90;;;;;;5006174;28;20462;-75
2022/11/16 08:21:15;;;;;;;64.90;52.60;;;11.50;99.90;;;;;;5005811;28;20490;-75
2022/11/16 08:23:44;;;;;;;58.83;50.80;;;11.60;99.90;;;;;;5005345;28;20986;-75
2022/11/16 08:26:13;;;;;;;49.27;36.97;;;11.60;99.90;;;;;;5005131;28;20470;-74
2022/11/16 08:28:40;;;;;;;45.47;32.20;;;11.60;99.90;;;;;;5005670;28;20462;-74
2022/11/16 08:31:09;;;;;;;47.73;32.73;;;11.60;99.90;;;;;;5005974;28;20483;-75
2022/11/16 08:33:36;;;;;;;30.93;22.67;;;11.60;99.90;;;;;;5005868;28;20454;-75
2022/11/16 08:36:04;;;;;;;22.60;16.93;;;11.60;99.90;;;;;;5004442;28;20490;-75
2022/11/16 08:38:30;;;;;;;21.33;17.17;;;11.60;99.90;;;;;;5005657;28;20466;-75
2022/11/16 08:40:59;;;;;;;21.37;14.83;;;11.60;99.90;;;;;;5005282;28;20995;-75
2022/11/16 08:43:26;;;;;;;16.13;11.00;;;11.60;99.90;;;;;;5005753;28;20459;-75
2022/11/16 08:45:53;;;;;;;14.00;9.87;;;11.70;99.90;;;;;;5005293;28;20458;-74
2022/11/16 08:48:19;;;;;;;16.10;9.80;;;11.70;99.90;;;;;;5005230;28;20504;-74
2022/11/16 08:50:46;;;;;;;11.30;8.50;;;11.60;99.90;;;;;;5005509;28;20490;-74
2022/11/16 08:53:14;;;;;;;11.57;8.50;;;11.60;99.90;;;;;;5005413;28;20465;-75
2022/11/16 08:55:41;;;;;;;10.07;8.73;;;11.70;99.90;;;;;;5004968;28;20501;-75
2022/11/16 08:58:09;;;;;;;9.67;7.60;;;11.70;99.90;;;;;;5005286;28;20867;-74
2022/11/16 09:00:36;;;;;;;11.50;7.40;;;11.70;99.90;;;;;;5005176;28;20651;-75
2022/11/16 09:03:03;;;;;;;10.33;8.00;;;11.70;99.90;;;;;;5005461;28;20438;-75
2022/11/16 09:05:30;;;;;;;12.73;6.57;;;11.80;99.90;;;;;;5004799;28;20823;-75
2022/11/16 09:07:57;;;;;;;8.20;6.33;;;11.80;99.90;;;;;;5005108;28;20620;-74
2022/11/16 09:10:24;;;;;;;8.87;5.60;;;11.80;99.90;;;;;;5005285;28;20459;-75
2022/11/16 09:12:52;;;;;;;7.27;5.13;;;11.90;99.90;;;;;;5005558;28;20892;-75
2022/11/16 09:15:20;;;;;;;8.53;5.70;;;11.90;99.90;;;;;;5004515;28;20943;-75
2022/11/16 09:17:47;;;;;;;11.10;6.03;;;12.00;99.90;;;;;;5004800;28;20970;-75
2022/11/16 09:20:14;;;;;;;7.90;5.97;;;12.00;99.90;;;;;;5005197;28;20458;-75
2022/11/16 09:22:41;;;;;;;5.80;5.10;;;12.00;99.90;;;;;;5005712;28;20467;-75
2022/11/16 09:25:09;;;;;;;8.87;6.40;;;12.00;99.90;;;;;;5004915;28;20459;-75
2022/11/16 09:27:36;;;;;;;9.10;5.80;;;12.00;99.90;;;;;;5005659;28;20509;-75
2022/11/16 09:30:04;;;;;;;8.50;6.00;;;12.00;99.90;;;;;;5005355;28;20454;-75
2022/11/16 09:32:32;;;;;;;8.93;6.23;;;12.10;99.90;;;;;;5005182;28;20475;-75
2022/11/16 09:34:59;;;;;;;8.90;6.50;;;12.10;99.90;;;;;;5005167;28;20473;-75
2022/11/16 09:37:25;;;;;;;13.67;4.70;;;12.10;99.90;;;;;;5005195;28;20494;-75
2022/11/16 09:39:52;;;;;;;6.37;3.87;;;12.10;99.90;;;;;;5009032;28;20463;-75
2022/11/16 09:42:34;;;;;;;4.77;3.50;;;12.20;99.90;;;;;;5009055;28;21002;-75
2022/11/16 09:45:05;;;;;;;9.83;3.20;;;12.10;99.90;;;;;;5008541;28;20447;-75
2022/11/16 09:47:47;;;;;;;4.53;2.30;;;12.10;99.90;;;;;;5009226;28;20538;-75
2022/11/16 09:50:27;;;;;;;4.10;2.30;;;12.10;99.90;;;;;;5009022;28;20466;-74
2022/11/16 09:52:59;;;;;;;5.17;3.10;;;12.10;99.90;;;;;;5009844;28;20436;-74
2022/11/16 09:55:32;;;;;;;6.63;2.20;;;12.20;99.90;;;;;;5009298;28;20450;-75
2022/11/16 09:58:02;;;;;;;2.90;1.90;;;12.30;99.90;;;;;;5008730;28;20788;-75
2022/11/16 10:00:30;;;;;;;7.93;1.90;;;12.40;99.90;;;;;;5008568;28;20454;-74
2022/11/16 10:03:03;;;;;;;4.37;2.20;;;12.50;99.90;;;;;;5008826;28;20518;-75
2022/11/16 10:05:37;;;;;;;4.60;2.30;;;12.60;99.90;;;;;;5008085;28;20431;-75
2022/11/16 10:08:10;;;;;;;5.20;1.60;;;12.70;99.90;;;;;;5008750;28;20825;-75
2022/11/16 10:10:39;;;;;;;5.67;2.00;;;12.80;99.90;;;;;;5008290;28;20477;-75
2022/11/16 10:13:19;;;;;;;4.43;2.03;;;12.90;99.90;;;;;;5008322;28;20458;-75
2022/11/16 10:15:59;;;;;;;5.60;3.23;;;12.90;99.90;;;;;;5007812;28;20493;-75
2022/11/16 10:18:42;;;;;;;3.83;2.10;;;13.00;99.90;;;;;;5008212;28;20458;-74
2022/11/16 10:21:23;;;;;;;3.50;1.90;;;13.00;99.90;;;;;;5008393;28;20687;-75
2022/11/16 10:24:02;;;;;;;1.97;1.67;;;12.90;99.90;;;;;;5008205;28;20459;-75
2022/11/16 10:26:38;;;;;;;6.67;1.83;;;12.80;99.90;;;;;;5008441;28;20466;-74
2022/11/16 10:29:20;;;;;;;5.97;2.10;;;12.80;99.90;;;;;;5008381;28;20442;-74
2022/11/16 10:32:02;;;;;;;3.07;2.23;;;12.80;99.90;;;;;;5008060;28;20479;-74
2022/11/16 10:34:41;;;;;;;5.43;2.10;;;12.70;99.90;;;;;;5007613;28;20470;-74
2022/11/16 10:37:13;;;;;;;4.00;1.90;;;12.80;99.90;;;;;;5007748;28;20493;-74
2022/11/16 10:39:40;;;;;;;4.37;1.87;;;12.70;99.90;;;;;;5005727;28;20475;-74
2022/11/16 10:42:12;;;;;;;5.83;1.93;;;12.70;99.90;;;;;;5008020;28;20507;-74
2022/11/16 10:44:41;;;;;;;7.60;2.00;;;12.70;99.90;;;;;;5007529;28;20458;-75
2022/11/16 10:47:18;;;;;;;9.70;2.70;;;12.60;99.90;;;;;;5008056;28;20462;-74
2022/11/16 10:49:54;;;;;;;4.60;2.17;;;12.70;99.90;;;;;;5006566;28;21211;-75
2022/11/16 10:52:22;;;;;;;4.90;2.10;;;12.70;99.90;;;;;;5007798;28;20486;-74
2022/11/16 10:54:49;;;;;;;3.27;2.00;;;12.70;99.90;;;;;;5007106;28;20471;-75
2022/11/16 10:57:16;;;;;;;4.83;2.30;;;12.80;99.90;;;;;;5007862;28;20490;-75
2022/11/16 10:59:44;;;;;;;3.83;2.40;;;13.00;99.90;;;;;;5007626;28;20465;-75
2022/11/16 11:02:30;;;;;;;3.50;2.33;;;13.10;99.90;;;;;;5007241;28;20490;-74
2022/11/16 11:05:14;;;;;;;4.07;2.13;;;13.10;99.90;;;;;;5007139;28;20451;-75
2022/11/16 11:07:45;;;;;;;4.47;2.17;;;13.20;99.90;;;;;;5007776;28;20443;-75
2022/11/16 11:10:25;;;;;;;5.00;2.30;;;13.20;99.90;;;;;;5007451;28;20933;-75
2022/11/16 11:13:03;;;;;;;6.27;2.30;;;13.20;99.90;;;;;;5007774;28;20446;-75
2022/11/16 11:15:30;;;;;;;15.43;2.40;;;13.20;99.90;;;;;;5007020;28;20443;-74
2022/11/16 11:18:13;;;;;;;11.23;3.07;;;13.10;99.90;;;;;;5007124;28;20861;-75
2022/11/16 11:20:44;;;;;;;4.60;2.00;;;13.10;99.90;;;;;;5007265;28;20477;-75
2022/11/16 11:23:17;;;;;;;2.73;1.93;;;13.10;99.90;;;;;;5006000;28;20439;-75
2022/11/16 11:25:51;;;;;;;6.40;2.83;;;13.10;99.90;;;;;;5006371;28;20959;-76
2022/11/16 11:28:22;;;;;;;5.77;2.73;;;13.10;99.90;;;;;;5007065;28;20461;-76
2022/11/16 11:30:56;;;;;;;10.50;2.77;;;13.10;99.90;;;;;;5007134;28;20487;-77
2022/11/16 11:33:24;;;;;;;4.90;3.10;;;13.30;99.90;;;;;;5007145;28;20432;-76
2022/11/16 11:36:01;;;;;;;8.90;2.73;;;13.50;99.90;;;;;;5006391;28;20459;-76
2022/11/16 11:38:29;;;;;;;4.30;2.50;;;13.70;99.90;;;;;;5007003;28;20469;-76
2022/11/16 11:40:58;;;;;;;6.67;2.20;;;13.70;99.90;;;;;;5006582;28;20475;-76
2022/11/16 11:43:25;;;;;;;5.97;2.17;;;13.80;99.90;;;;;;5007015;28;20451;-76
2022/11/16 11:45:57;;;;;;;5.83;2.30;;;13.90;99.90;;;;;;5005895;28;20459;-77
2022/11/16 11:48:31;;;;;;;3.13;2.00;;;14.00;99.90;;;;;;5006928;28;20470;-76
2022/11/16 11:51:02;;;;;;;3.03;2.00;;;14.20;99.90;;;;;;5006731;28;21261;-76
2022/11/16 11:53:42;;;;;;;1.93;1.67;;;14.20;99.90;;;;;;5006472;28;20435;-77
2022/11/16 11:56:12;;;;;;;3.00;1.83;;;14.10;99.90;;;;;;5005564;28;20455;-76
2022/11/16 11:58:40;;;;;;;2.70;1.60;;;14.20;99.90;;;;;;5006466;28;20478;-76
2022/11/16 12:01:50;;;;;;;11.33;3.17;;;14.20;99.90;;;;;;5005880;28;20489;-76
2022/11/16 12:04:56;;;;;;;10.43;2.30;;;14.40;99.90;;;;;;5005622;28;20772;-76
2022/11/16 12:07:37;;;;;;;3.87;1.93;;;14.70;99.90;;;;;;5006172;28;20463;-76
2022/11/16 12:10:15;;;;;;;2.77;2.10;;;15.30;99.90;;;;;;5006181;28;20443;-77
2022/11/16 12:12:51;;;;;;;3.50;2.63;;;15.30;99.90;;;;;;5005862;28;20461;-76
2022/11/16 12:15:41;;;;;;;3.60;2.53;;;15.50;99.90;;;;;;5005024;28;20455;-76
2022/11/16 12:18:26;;;;;;;6.90;2.20;;;15.70;99.90;;;;;;5006283;28;20490;-76
2022/11/16 12:21:00;;;;;;;3.70;2.20;;;16.20;99.90;;;;;;5005632;28;20490;-75
2022/11/16 12:23:55;;;;;;;5.67;1.90;;;16.30;99.90;;;;;;5006111;28;20458;-75
2022/11/16 12:26:32;;;;;;;4.37;1.83;;;16.40;99.90;;;;;;5005748;28;20442;-76
2022/11/16 12:29:17;;;;;;;8.27;2.40;;;16.50;99.90;;;;;;5006131;28;20501;-75
2022/11/16 12:32:14;;;;;;;3.37;2.10;;;16.50;99.90;;;;;;5005871;28;20482;-75
2022/11/16 12:34:56;;;;;;;3.73;1.60;;;16.50;99.90;;;;;;5005798;28;20435;-76
2022/11/16 12:37:30;;;;;;;6.40;2.73;;;16.40;99.90;;;;;;5004363;28;20516;-76
2022/11/16 12:40:22;;;;;;;5.00;2.03;;;16.40;99.90;;;;;;5005368;28;20824;-77
2022/11/16 12:42:53;;;;;;;4.70;1.73;;;16.30;99.90;;;;;;5005699;28;20459;-76
2022/11/16 12:45:44;;;;;;;5.70;2.00;;;16.20;99.90;;;;;;5005507;28;20440;-76
2022/11/16 12:48:27;;;;;;;4.33;1.50;;;16.20;99.90;;;;;;5005807;28;20435;-75
2022/11/16 12:51:04;;;;;;;5.33;1.70;;;16.20;99.90;;;;;;5005704;28;21281;-76
2022/11/16 12:54:00;;;;;;;2.43;1.50;;;16.20;99.90;;;;;;5006029;28;20485;-75
2022/11/16 12:56:40;;;;;;;4.30;1.67;;;16.20;99.90;;;;;;5005213;28;20813;-76
2022/11/16 12:59:30;;;;;;;2.03;1.30;;;16.20;99.90;;;;;;5005894;28;20501;-76
2022/11/16 13:02:05;;;;;;;4.77;1.50;;;16.10;99.90;;;;;;5005446;28;20912;-75
2022/11/16 13:04:39;;;;;;;3.90;1.97;;;16.10;99.90;;;;;;5005259;28;20534;-76
2022/11/16 13:07:11;;;;;;;2.63;1.63;;;16.10;99.90;;;;;;5006085;28;20442;-74
2022/11/16 13:09:40;;;;;;;5.60;1.80;;;16.10;99.90;;;;;;5006279;28;20462;-74
2022/11/16 13:12:14;;;;;;;7.80;2.40;;;16.00;99.90;;;;;;5006222;28;20529;-75
2022/11/16 13:14:44;;;;;;;5.60;2.50;;;16.00;99.90;;;;;;5008706;28;20454;-75
2022/11/16 13:17:17;;;;;;;6.93;2.70;;;15.90;99.90;;;;;;5010207;28;20486;-75
2022/11/16 13:19:50;;;;;;;7.10;4.40;;;15.80;99.90;;;;;;5010555;28;20830;-75
2022/11/16 13:22:22;;;;;;;9.83;5.90;;;15.70;99.90;;;;;;5009565;28;20518;-75
2022/11/16 13:24:57;;;;;;;10.77;8.23;;;15.60;99.90;;;;;;5009339;28;20459;-76
2022/11/16 13:27:39;;;;;;;17.80;11.10;;;15.60;99.90;;;;;;5011785;28;20454;-75
2022/11/16 13:30:16;;;;;;;23.17;14.37;;;15.40;99.90;;;;;;5010181;28;20442;-74
2022/11/16 13:33:10;;;;;;;15.07;10.80;;;15.30;99.90;;;;;;5009833;28;20446;-75
2022/11/16 13:35:38;;;;;;;19.20;11.77;;;15.30;99.90;;;;;;5009197;28;20556;-76
2022/11/16 13:38:10;;;;;;;12.83;8.30;;;15.30;99.90;;;;;;5008735;28;20922;-76
2022/11/16 13:40:37;;;;;;;7.90;5.70;;;15.20;99.90;;;;;;5009044;28;20474;-76
2022/11/16 13:43:15;;;;;;;8.90;5.47;;;15.10;99.90;;;;;;5009220;28;20465;-76
2022/11/16 13:45:44;;;;;;;6.80;3.40;;;15.00;99.90;;;;;;5008060;28;20449;-76
2022/11/16 13:48:18;;;;;;;5.90;2.80;;;14.90;99.90;;;;;;5008613;28;20446;-77
2022/11/16 13:50:52;;;;;;;6.50;3.37;;;14.90;99.90;;;;;;5008771;28;20480;-76
2022/11/16 13:53:25;;;;;;;8.00;2.90;;;14.80;99.90;;;;;;5008768;28;20446;-75
2022/11/16 13:55:56;;;;;;;7.60;3.60;;;14.70;99.90;;;;;;5008482;28;20463;-76
2022/11/16 13:58:25;;;;;;;7.33;2.20;;;14.70;99.90;;;;;;5008464;28;21326;-76
2022/11/16 14:01:04;;;;;;;6.10;2.20;;;14.60;99.90;;;;;;5008859;28;20490;-77
2022/11/16 14:03:38;;;;;;;5.57;2.30;;;14.70;99.90;;;;;;5008655;28;20506;-76
2022/11/16 14:06:26;;;;;;;3.63;2.30;;;14.60;99.90;;;;;;5007806;28;20474;-76
2022/11/16 14:08:54;;;;;;;4.00;2.40;;;14.60;99.90;;;;;;5008315;28;20989;-76
2022/11/16 14:11:30;;;;;;;5.20;2.50;;;14.50;99.90;;;;;;5008379;28;20565;-76
2022/11/16 14:14:00;;;;;;;7.90;2.67;;;14.50;99.90;;;;;;5008961;28;20509;-76
2022/11/16 14:16:47;;;;;;;6.40;3.10;;;14.40;99.90;;;;;;5008450;28;20466;-76
2022/11/16 14:19:53;;;;;;;3.73;3.03;;;14.40;99.90;;;;;;5008489;28;20465;-76
2022/11/16 14:22:56;;;;;;;7.20;3.03;;;14.40;99.90;;;;;;5008467;28;20488;-76
2022/11/16 14:25:33;;;;;;;3.33;2.40;;;14.30;99.90;;;;;;5005178;28;20458;-76
2022/11/16 14:28:13;;;;;;;5.50;2.93;;;14.30;99.90;;;;;;5008390;28;20451;-76
2022/11/16 14:30:55;;;;;;;5.13;2.90;;;14.20;99.90;;;;;;5008570;28;20484;-75
2022/11/16 14:33:30;;;;;;;5.33;2.70;;;14.20;99.90;;;;;;5007972;28;20439;-76
2022/11/16 14:35:58;;;;;;;3.50;2.20;;;14.20;99.90;;;;;;5007861;28;20443;-76
2022/11/16 14:38:30;;;;;;;8.93;2.57;;;14.20;99.90;;;;;;5006296;28;20861;-75
2022/11/16 14:40:59;;;;;;;11.20;2.70;;;14.20;99.90;;;;;;5007704;28;20486;-75
2022/11/16 14:43:29;;;;;;;7.40;3.23;;;14.20;99.90;;;;;;5007810;28;20454;-75
2022/11/16 14:46:02;;;;;;;4.73;2.90;;;14.30;99.90;;;;;;5007399;28;20466;-75
2022/11/16 14:48:29;;;;;;;7.00;3.30;;;14.20;99.90;;;;;;5007725;28;20497;-75
2022/11/16 14:51:10;;;;;;;7.30;3.23;;;14.30;99.90;;;;;;5007236;28;20994;-75
2022/11/16 14:53:41;;;;;;;4.80;3.30;;;14.30;99.90;;;;;;5007857;28;20446;-75
2022/11/16 14:56:11;;;;;;;8.97;5.10;;;14.30;99.90;;;;;;5006773;28;20950;-76
2022/11/16 14:58:38;;;;;;;7.63;5.00;;;14.30;99.90;;;;;;5007840;28;20497;-75
2022/11/16 15:01:12;;;;;;;5.97;4.70;;;14.30;99.90;;;;;;5007539;28;20497;-75
2022/11/16 15:03:47;;;;;;;7.90;3.50;;;14.30;99.90;;;;;;5007428;28;21037;-76
2022/11/16 15:06:16;;;;;;;5.50;3.40;;;14.30;99.90;;;;;;5006803;28;20470;-75
2022/11/16 15:08:45;;;;;;;7.33;3.37;;;14.30;99.90;;;;;;5007557;28;20534;-75
2022/11/16 15:11:22;;;;;;;4.13;3.00;;;14.30;99.90;;;;;;5007682;28;20474;-75
2022/11/16 15:13:50;;;;;;;4.30;2.50;;;14.30;99.90;;;;;;5007611;28;20546;-75
2022/11/16 15:16:19;;;;;;;8.87;2.47;;;14.30;99.90;;;;;;5007015;28;20474;-76
2022/11/16 15:19:00;;;;;;;5.03;2.10;;;14.20;99.90;;;;;;5007566;28;20487;-76
2022/11/16 15:21:28;;;;;;;4.30;2.40;;;14.10;99.90;;;;;;5007312;28;20479;-76
2022/11/16 15:23:55;;;;;;;5.60;2.57;;;14.10;99.90;;;;;;5007286;28;20528;-75
2022/11/16 15:26:23;;;;;;;6.63;3.80;;;14.00;99.90;;;;;;5006820;28;20482;-76
2022/11/16 15:28:51;;;;;;;5.50;3.43;;;13.80;99.90;;;;;;5007448;28;20506;-76
2022/11/16 15:31:20;;;;;;;5.67;3.70;;;13.70;99.90;;;;;;5007305;28;20487;-76
2022/11/16 15:33:49;;;;;;;5.97;3.27;;;13.60;99.90;;;;;;5007048;28;20835;-75
2022/11/16 15:36:24;;;;;;;3.90;3.47;;;13.50;99.90;;;;;;5004794;28;20463;-75
2022/11/16 15:38:52;;;;;;;4.57;2.90;;;13.40;99.90;;;;;;5006171;28;20497;-76
2022/11/16 15:41:20;;;;;;;6.93;3.03;;;13.30;99.90;;;;;;5005329;28;20482;-76
2022/11/16 15:43:51;;;;;;;3.43;2.70;;;13.20;99.90;;;;;;5006294;28;20974;-76
2022/11/16 15:46:20;;;;;;;10.17;3.33;;;13.20;99.90;;;;;;5006825;28;20443;-76
2022/11/16 15:48:48;;;;;;;6.00;3.30;;;13.10;99.90;;;;;;5008870;28;20470;-75
2022/11/16 15:51:16;;;;;;;6.77;3.77;;;13.00;99.90;;;;;;5014222;28;20470;-75
2022/11/16 15:53:44;;;;;;;9.47;3.40;;;13.00;99.90;;;;;;5006089;28;20463;-76
2022/11/16 15:56:15;;;;;;;5.87;3.47;;;13.00;99.90;;;;;;5005654;28;20539;-76
2022/11/16 15:58:42;;;;;;;6.10;3.10;;;13.00;99.90;;;;;;5006977;28;20502;-76
2022/11/16 16:01:11;;;;;;;3.67;3.10;;;12.90;99.90;;;;;;5006589;28;20489;-76
2022/11/16 16:03:44;;;;;;;6.20;3.07;;;12.90;99.90;;;;;;5006862;28;20473;-76
2022/11/16 16:06:15;;;;;;;8.10;3.40;;;12.80;99.90;;;;;;5006310;28;20503;-76
2022/11/16 16:08:41;;;;;;;5.00;2.83;;;12.90;99.90;;;;;;5007400;28;20439;-76
2022/11/16 16:11:26;;;;;;;3.53;2.47;;;12.80;99.90;;;;;;5006867;28;21010;-76
2022/11/16 16:13:58;;;;;;;4.30;3.07;;;12.80;99.90;;;;;;5006984;28;20459;-76
2022/11/16 16:16:31;;;;;;;6.20;2.67;;;12.80;99.90;;;;;;5006747;28;20465;-73
2022/11/16 16:19:01;;;;;;;4.17;2.60;;;12.80;99.90;;;;;;5006134;28;20506;-73
2022/11/16 16:21:39;;;;;;;3.30;2.57;;;12.80;99.90;;;;;;5006941;28;20478;-73
2022/11/16 16:24:09;;;;;;;6.27;3.87;;;12.80;99.90;;;;;;5006498;28;20439;-74
2022/11/16 16:26:36;;;;;;;9.50;5.20;;;12.70;99.90;;;;;;5007186;28;20465;-73
2022/11/16 16:29:03;;;;;;;6.63;4.60;;;12.70;99.90;;;;;;5006738;28;20517;-74
2022/11/16 16:31:30;;;;;;;7.57;5.07;;;12.70;99.90;;;;;;5006646;28;20475;-74
2022/11/16 16:33:58;;;;;;;8.57;4.70;;;12.60;99.90;;;;;;5006125;28;20458;-73
2022/11/16 16:36:25;;;;;;;7.80;4.60;;;12.60;99.90;;;;;;5006383;28;20466;-73
2022/11/16 16:38:52;;;;;;;7.40;4.97;;;12.70;99.90;;;;;;5005781;28;20494;-75
2022/11/16 16:41:20;;;;;;;13.73;8.53;;;12.60;99.90;;;;;;5006085;28;20483;-74
2022/11/16 16:43:47;;;;;;;11.80;9.30;;;12.60;99.90;;;;;;5006003;28;20581;-73
2022/11/16 16:46:13;;;;;;;5.50;5.00;;;12.60;99.90;;;;;;5005318;28;21033;-74
2022/11/16 16:48:40;;;;;;;8.33;4.77;;;12.50;99.90;;;;;;5005331;28;20833;-74
2022/11/16 16:51:11;;;;;;;6.50;4.37;;;12.50;99.90;;;;;;5005885;28;20479;-74
2022/11/16 16:53:38;;;;;;;6.50;4.20;;;12.50;99.90;;;;;;5005689;28;20835;-74
2022/11/16 16:56:05;;;;;;;5.13;4.43;;;12.50;99.90;;;;;;5004864;28;20462;-74
2022/11/16 16:58:32;;;;;;;7.53;4.30;;;12.50;99.90;;;;;;5005981;28;20496;-74
2022/11/16 17:01:03;;;;;;;5.67;4.13;;;12.50;99.90;;;;;;5005185;28;20486;-71
2022/11/16 17:03:30;;;;;;;6.93;4.23;;;12.40;99.90;;;;;;5005698;28;20454;-73
2022/11/16 17:05:59;;;;;;;11.23;7.13;;;12.40;99.90;;;;;;5005867;28;20851;-73
2022/11/16 17:08:32;;;;;;;9.13;6.20;;;12.30;99.90;;;;;;5005812;28;20450;-73
2022/11/16 17:10:59;;;;;;;15.10;10.07;;;12.30;99.90;;;;;;5005940;28;20470;-73
2022/11/16 17:13:25;;;;;;;14.63;7.10;;;12.30;99.90;;;;;;5006571;28;20465;-72
2022/11/16 17:15:52;;;;;;;10.03;6.43;;;12.30;99.90;;;;;;5004463;28;20477;-72
2022/11/16 17:18:19;;;;;;;8.40;6.20;;;12.30;99.90;;;;;;5005590;28;21006;-73
2022/11/16 17:20:46;;;;;;;8.95;6.30;;;12.20;99.90;;;;;;5005454;28;20442;-73
2022/11/16 17:23:14;;;;;;;11.65;6.80;;;12.20;99.90;;;;;;5002434;28;20450;-73
2022/11/16 17:25:42;;;;;;;9.37;6.93;;;12.30;99.90;;;;;;5005781;28;20240;-72
2022/11/16 17:28:08;;;;;;;7.30;5.27;;;12.40;99.90;;;;;;5006111;28;20939;-73
2022/11/16 17:30:35;;;;;;;6.60;5.23;;;12.40;99.90;;;;;;5005546;28;20474;-73
2022/11/16 17:33:03;;;;;;;7.13;4.10;;;12.30;99.90;;;;;;5005153;28;21018;-72
2022/11/16 17:35:30;;;;;;;7.30;4.57;;;12.20;99.90;;;;;;5004894;28;20463;-73
2022/11/16 17:37:57;;;;;;;6.03;4.73;;;12.10;99.90;;;;;;5005404;28;20494;-73
2022/11/16 17:40:24;;;;;;;3.97;3.33;;;12.00;99.90;;;;;;5004768;28;20463;-72
2022/11/16 17:42:52;;;;;;;6.33;3.80;;;11.90;99.90;;;;;;5005022;28;20459;-72
2022/11/16 17:45:19;;;;;;;5.87;3.87;;;11.80;99.90;;;;;;5005076;28;20454;-72
2022/11/16 17:47:45;;;;;;;14.17;6.60;;;11.80;99.90;;;;;;5006036;28;20466;-73
2022/11/16 17:50:12;;;;;;;14.47;8.47;;;11.80;99.90;;;;;;5004917;28;20466;-72
2022/11/16 17:52:39;;;;;;;12.70;8.03;;;11.70;99.90;;;;;;5005665;28;20474;-72
2022/11/16 17:55:08;;;;;;;12.43;7.73;;;11.70;99.90;;;;;;5004662;28;20519;-72
2022/11/16 17:57:35;;;;;;;15.83;9.70;;;11.60;99.90;;;;;;5005462;28;20459;-73
2022/11/16 18:00:04;;;;;;;14.03;9.17;;;11.60;99.90;;;;;;5007146;28;20458;-75
2022/11/16 18:02:31;;;;;;;13.83;9.70;;;11.50;99.90;;;;;;5008526;28;20494;-72
2022/11/16 18:04:58;;;;;;;13.75;9.02;;;11.40;99.90;;;;;;5006886;28;20545;-72
2022/11/16 18:13:22;;;;;;;12.80;8.00;;;11.50;99.90;;;;;;5353767;23;20554;-73
2022/11/16 18:15:50;;;;;;;14.37;6.87;;;11.40;99.90;;;;;;4974032;28;20482;-72